Ingeniero Ambrosio Taravella Airport
SACO : rendu visible

Aérodrome :











RETROUVEZ-NOUS SUR...

 
LOGIN :

S'inscrire | Disclaimer

   EN    FR    IT 

 









Légende :    VFR   VFR Marginal   IFR   IFR Intensif   IFR Très Intensif
Visi : 
Plafond : 
>= 8 km
>= 3000ft
5 à 8 km
1000 à 3000 ft
1500m à 5 km
500 à 1000 ft
800 à 1500m
200 à 500 ft
< 800m
< 200 ft
Symboles :   Orages  Brouillard  Fortes neiges  Fortes précipitations  Vent > 20 kt






- Altitude de l'aérodrome : 1604 ft
- Code IATA : COR


SACO - Ingeniero Ambrosio Taravella

DERNIER METAR :
  • 041700Z 06004KT 010V100 CAVOK 27/11 Q1010 NOSIG

METARs EXPIRÉS :
  • 041600Z 28003KT 210V350 CAVOK 26/10 Q1010 NOSIG
  • 041500Z VRB04KT CAVOK 24/10 Q1011 NOSIG

TAF TAF SACO
Valide du 04 à 18h jusqu'au 05 à 18h UTC


041700Z 0418/0518 02015KT 9999 FEW030 TX29/0518Z TN15/0510Z
BECMG 0500/0503 36010KT CAVOK
BECMG 0512/0515 VRB03KT 9999 SCT030 BKN060



MET'MAP, la Météo Aéronautique d'un coup d'oeil ! - Copyright ORBIFLY Décembre 2007 - Disclaimer

ORBIFLY MET'MAP TEAM :

Programmation & Développement : Alexandra Zaïnal
Sur une idée originale de : Baudouin d'Aumeries
Assistance à la programmation : Marc-Olivier Méhu
Soutien technique & logistique : Manuel Goepfert

Contact : metmap@orbifly.com




SOURCES & CREDITS :

   NOAA       Earth
Advisory